Time;durP1;ratioP1;P1;durP2;ratioP2;P2;SDS_P1;SDS_P2;PMS_P1;PMS_P2;Temp;Humidity;BMP_temperature;BMP_pressure;BME280_temperature;BME280_humidity;BME280_pressure;Samples;Min_cycle;Max_cycle;Signal;HPM_P1;HPM_P2
2021/05/19 00:00:21;;;;;;;3.83;2.60;;;6.00;99.90;;;;;;2105047;28;20193;-66
2021/05/19 00:01:22;;;;;;;3.55;2.58;;;6.00;99.90;;;;;;2104870;28;20187;-65
2021/05/19 00:02:22;;;;;;;8.47;3.07;;;6.00;99.90;;;;;;2105127;28;20190;-65
2021/05/19 00:03:23;;;;;;;5.00;2.97;;;6.00;99.90;;;;;;2105687;28;20193;-64
2021/05/19 00:04:24;;;;;;;3.07;2.70;;;6.00;99.90;;;;;;2105911;28;20235;-65
2021/05/19 00:05:25;;;;;;;3.30;3.00;;;6.00;99.90;;;;;;2105579;28;20673;-65
2021/05/19 00:06:26;;;;;;;4.70;2.70;;;6.00;99.90;;;;;;2105663;28;20175;-64
2021/05/19 00:07:27;;;;;;;3.25;2.90;;;6.00;99.90;;;;;;2104898;28;20171;-64
2021/05/19 00:08:28;;;;;;;3.60;2.87;;;6.00;99.90;;;;;;2105149;28;20187;-65
2021/05/19 00:09:28;;;;;;;4.50;3.00;;;6.00;99.90;;;;;;2105699;28;20235;-64
2021/05/19 00:10:29;;;;;;;6.23;2.60;;;6.00;99.90;;;;;;2105056;28;20180;-65
2021/05/19 00:11:30;;;;;;;5.37;2.97;;;6.00;99.90;;;;;;2104785;28;20515;-65
2021/05/19 00:12:31;;;;;;;3.03;2.50;;;6.00;99.90;;;;;;2105042;28;20209;-64
2021/05/19 00:13:34;;;;;;;4.93;2.80;;;6.00;99.90;;;;;;2105106;28;20182;-64
2021/05/19 00:14:35;;;;;;;4.10;2.90;;;6.10;99.90;;;;;;2105550;28;20178;-64
2021/05/19 00:15:35;;;;;;;3.58;2.55;;;6.10;99.90;;;;;;2105776;28;20195;-65
2021/05/19 00:16:37;;;;;;;3.93;2.70;;;6.10;99.90;;;;;;2105460;28;20637;-65
2021/05/19 00:17:46;;;;;;;2.85;2.40;;;6.00;99.90;;;;;;2105634;28;20180;-65
2021/05/19 00:18:47;;;;;;;3.95;2.75;;;6.10;99.90;;;;;;2105622;28;20174;-65
2021/05/19 00:19:47;;;;;;;3.47;2.70;;;6.00;99.90;;;;;;2105781;28;20186;-65
2021/05/19 00:20:48;;;;;;;3.17;2.87;;;6.10;99.90;;;;;;2105667;28;20182;-65
2021/05/19 00:21:49;;;;;;;3.87;3.00;;;6.10;99.90;;;;;;2105354;28;20545;-66
2021/05/19 00:22:50;;;;;;;2.88;2.53;;;6.10;99.90;;;;;;2105340;28;20205;-66
2021/05/19 00:23:51;;;;;;;4.50;2.70;;;6.00;99.90;;;;;;2105565;28;20725;-65
2021/05/19 00:24:51;;;;;;;4.38;2.75;;;6.00;99.90;;;;;;2105397;28;20189;-66
2021/05/19 00:25:52;;;;;;;2.80;2.50;;;6.00;99.90;;;;;;2105561;28;20675;-66
2021/05/19 00:26:53;;;;;;;2.53;2.33;;;6.00;99.90;;;;;;2105554;28;20188;-65
2021/05/19 00:27:55;;;;;;;3.73;2.63;;;6.00;99.90;;;;;;2105380;28;20225;-66
2021/05/19 00:28:56;;;;;;;5.68;2.88;;;6.00;99.90;;;;;;2105526;28;20637;-65
2021/05/19 00:29:57;;;;;;;3.55;2.75;;;6.00;99.90;;;;;;2105616;28;20228;-66
2021/05/19 00:31:02;;;;;;;6.80;2.87;;;6.10;99.90;;;;;;2105792;28;20305;-66
2021/05/19 00:32:03;;;;;;;2.60;2.35;;;6.10;99.90;;;;;;2105420;28;20191;-65
2021/05/19 00:33:05;;;;;;;2.95;2.50;;;6.10;99.90;;;;;;2105349;28;20189;-66
2021/05/19 00:34:07;;;;;;;2.42;2.22;;;6.10;99.90;;;;;;2105533;28;20181;-65
2021/05/19 00:35:08;;;;;;;4.38;2.40;;;6.10;99.90;;;;;;2105424;28;20257;-66
2021/05/19 00:36:09;;;;;;;4.55;2.83;;;6.10;99.90;;;;;;2105674;28;20178;-65
2021/05/19 00:37:10;;;;;;;3.70;2.40;;;6.10;99.90;;;;;;2105446;28;20210;-65
2021/05/19 00:38:11;;;;;;;5.40;2.47;;;6.10;99.90;;;;;;2105593;28;20170;-65
2021/05/19 00:39:12;;;;;;;2.43;2.17;;;6.10;99.90;;;;;;2105431;28;20237;-66
2021/05/19 00:40:14;;;;;;;2.28;2.00;;;6.10;99.90;;;;;;2105545;28;20175;-65
2021/05/19 00:41:15;;;;;;;3.78;2.72;;;6.10;99.90;;;;;;2105287;28;20201;-65
2021/05/19 00:42:16;;;;;;;3.42;2.75;;;6.00;99.90;;;;;;2104946;28;20198;-65
2021/05/19 00:43:17;;;;;;;3.63;2.28;;;6.10;99.90;;;;;;2104748;28;20210;-66
2021/05/19 00:44:17;;;;;;;4.10;2.63;;;6.10;99.90;;;;;;2105536;28;20608;-66
2021/05/19 00:45:19;;;;;;;4.77;2.83;;;6.10;99.90;;;;;;2105192;28;20221;-66
2021/05/19 00:46:19;;;;;;;2.40;2.20;;;6.10;99.90;;;;;;2105057;28;20190;-65
2021/05/19 00:47:38;;;;;;;2.90;2.30;;;6.10;99.90;;;;;;2096294;28;20661;-65
2021/05/19 00:48:39;;;;;;;2.78;2.03;;;6.10;99.90;;;;;;2098929;28;20190;-65
2021/05/19 00:49:40;;;;;;;2.83;2.40;;;6.10;99.90;;;;;;2104757;28;20185;-65
2021/05/19 00:50:41;;;;;;;2.80;2.37;;;6.00;99.90;;;;;;2105469;28;20491;-66
2021/05/19 00:51:42;;;;;;;3.87;2.37;;;6.00;99.90;;;;;;2104582;28;20177;-65
2021/05/19 00:52:43;;;;;;;3.65;2.42;;;6.00;99.90;;;;;;2104845;28;20182;-65
2021/05/19 00:53:44;;;;;;;4.53;2.40;;;6.00;99.90;;;;;;2105352;28;20273;-66
2021/05/19 00:54:44;;;;;;;2.63;2.27;;;6.00;99.90;;;;;;2105321;28;20261;-65
2021/05/19 00:55:45;;;;;;;5.67;2.53;;;6.00;99.90;;;;;;2105294;28;20204;-65
2021/05/19 00:56:46;;;;;;;3.33;2.27;;;6.00;99.90;;;;;;2104891;28;20684;-66
2021/05/19 00:57:51;;;;;;;4.83;2.60;;;6.00;99.90;;;;;;2104670;28;20505;-66
2021/05/19 00:58:57;;;;;;;3.42;2.40;;;6.00;99.90;;;;;;2104884;28;20277;-65
2021/05/19 00:59:59;;;;;;;2.72;2.42;;;6.00;99.90;;;;;;2105332;28;20183;-66
2021/05/19 01:01:00;;;;;;;2.63;2.38;;;6.00;99.90;;;;;;2105370;28;20179;-66
2021/05/19 01:02:01;;;;;;;2.53;2.33;;;6.00;99.90;;;;;;2105144;28;20178;-66
2021/05/19 01:03:02;;;;;;;3.30;2.20;;;6.00;99.90;;;;;;2105551;28;20272;-66
2021/05/19 01:04:04;;;;;;;3.33;2.10;;;6.00;99.90;;;;;;2105437;28;20191;-65
2021/05/19 01:05:14;;;;;;;2.97;2.35;;;6.00;99.90;;;;;;2105289;28;20179;-65
2021/05/19 01:06:28;;;;;;;3.05;2.38;;;5.90;99.90;;;;;;2105113;28;20257;-66
2021/05/19 01:07:32;;;;;;;2.35;2.15;;;5.90;99.90;;;;;;2105442;28;20240;-66
2021/05/19 01:09:52;;;;;;;3.15;2.30;;;5.90;99.90;;;;;;2107109;28;20163;-65
2021/05/19 01:10:54;;;;;;;5.28;2.55;;;5.90;99.90;;;;;;2106958;28;20178;-66
2021/05/19 01:11:55;;;;;;;2.50;2.30;;;5.80;99.90;;;;;;2106059;28;20190;-65
2021/05/19 01:12:56;;;;;;;2.47;2.28;;;5.80;99.90;;;;;;2106390;28;20238;-66
2021/05/19 01:13:58;;;;;;;3.83;2.20;;;5.80;99.90;;;;;;2107064;28;20220;-65
2021/05/19 01:14:59;;;;;;;3.22;2.63;;;5.80;99.90;;;;;;2106105;28;20178;-65
2021/05/19 01:16:00;;;;;;;2.67;2.30;;;5.80;99.90;;;;;;2106439;28;20600;-66
2021/05/19 01:17:01;;;;;;;2.85;2.30;;;5.80;99.90;;;;;;2106753;28;20510;-65
2021/05/19 01:18:04;;;;;;;2.83;2.17;;;5.80;99.90;;;;;;2107082;28;20201;-66
2021/05/19 01:19:05;;;;;;;3.53;2.47;;;5.80;99.90;;;;;;2106258;28;20178;-66
2021/05/19 01:20:07;;;;;;;2.63;2.42;;;5.80;99.90;;;;;;2106320;28;20297;-66
2021/05/19 01:21:10;;;;;;;3.03;2.40;;;5.80;99.90;;;;;;2106109;28;20664;-65
2021/05/19 01:22:30;;;;;;;2.78;2.17;;;5.70;99.90;;;;;;2106090;28;20273;-65
2021/05/19 01:23:32;;;;;;;3.78;2.42;;;5.70;99.90;;;;;;2106944;28;20175;-66
2021/05/19 01:24:33;;;;;;;3.10;2.45;;;5.70;99.90;;;;;;2106846;28;20187;-65
2021/05/19 01:25:37;;;;;;;3.72;2.33;;;5.70;99.90;;;;;;2106894;28;20269;-65
2021/05/19 01:26:38;;;;;;;3.70;2.30;;;5.70;99.90;;;;;;2106812;28;20614;-66
2021/05/19 01:27:38;;;;;;;3.43;2.80;;;5.60;99.90;;;;;;2106681;28;20193;-65
2021/05/19 01:28:41;;;;;;;4.73;2.70;;;5.60;99.90;;;;;;2106918;28;20278;-65
2021/05/19 01:29:47;;;;;;;3.05;2.33;;;5.60;99.90;;;;;;2106928;28;20188;-65
2021/05/19 01:30:48;;;;;;;3.95;2.42;;;5.60;99.90;;;;;;2106178;28;20673;-65
2021/05/19 01:31:49;;;;;;;2.30;2.00;;;5.60;99.90;;;;;;2106006;28;20186;-65
2021/05/19 01:32:50;;;;;;;2.97;1.90;;;5.60;99.90;;;;;;2106644;28;20178;-66
2021/05/19 01:33:51;;;;;;;3.75;2.28;;;5.60;99.90;;;;;;2106851;28;20181;-65
2021/05/19 01:34:53;;;;;;;3.90;2.33;;;5.60;99.90;;;;;;2106731;28;20614;-65
2021/05/19 01:35:54;;;;;;;4.28;2.35;;;5.50;99.90;;;;;;2106908;28;20178;-65
2021/05/19 01:36:55;;;;;;;2.75;2.05;;;5.50;99.90;;;;;;2108486;28;20202;-65
2021/05/19 01:37:56;;;;;;;3.20;2.10;;;5.50;99.90;;;;;;2107739;28;20291;-65
2021/05/19 01:38:56;;;;;;;2.60;2.40;;;5.50;99.90;;;;;;2106703;28;20759;-65
2021/05/19 01:39:57;;;;;;;3.13;2.47;;;5.50;99.90;;;;;;2106826;28;20336;-65
2021/05/19 01:40:58;;;;;;;2.95;2.60;;;5.40;99.90;;;;;;2106964;28;20174;-66
2021/05/19 01:41:59;;;;;;;2.63;2.10;;;5.50;99.90;;;;;;2106603;28;20186;-65
2021/05/19 01:42:59;;;;;;;3.57;2.77;;;5.50;99.90;;;;;;2106865;28;20181;-65
2021/05/19 01:44:12;;;;;;;4.63;2.67;;;5.40;99.90;;;;;;2106569;28;20239;-66
2021/05/19 01:45:15;;;;;;;4.50;2.60;;;5.40;99.90;;;;;;2106588;28;20200;-65
2021/05/19 01:46:16;;;;;;;3.60;2.33;;;5.40;99.90;;;;;;2106702;28;20168;-66
2021/05/19 01:47:31;;;;;;;4.20;2.88;;;5.40;99.90;;;;;;2106941;28;20239;-64
2021/05/19 01:48:34;;;;;;;2.38;2.10;;;5.40;99.90;;;;;;2106222;28;20181;-65
2021/05/19 01:49:43;;;;;;;2.40;2.20;;;5.30;99.90;;;;;;2106019;28;20177;-65
2021/05/19 01:50:47;;;;;;;3.03;2.30;;;5.30;99.90;;;;;;2106786;28;20224;-65
2021/05/19 01:51:50;;;;;;;3.53;2.20;;;5.30;99.90;;;;;;2105768;28;20186;-66
2021/05/19 01:52:58;;;;;;;2.45;2.25;;;5.30;99.90;;;;;;2106172;28;20187;-65
2021/05/19 01:53:59;;;;;;;4.03;2.20;;;5.30;99.90;;;;;;2106753;28;20182;-65
2021/05/19 01:55:02;;;;;;;3.57;2.70;;;5.40;99.90;;;;;;2106623;28;20585;-65
2021/05/19 01:56:03;;;;;;;2.65;2.30;;;5.40;99.90;;;;;;2106664;28;20174;-66
2021/05/19 01:57:07;;;;;;;3.33;2.50;;;5.40;99.90;;;;;;2106852;28;20185;-65
2021/05/19 01:58:08;;;;;;;3.58;2.30;;;5.40;99.90;;;;;;2106666;28;20175;-66
2021/05/19 01:59:09;;;;;;;3.33;2.17;;;5.40;99.90;;;;;;2106708;28;20712;-65
2021/05/19 02:00:12;;;;;;;3.27;2.40;;;5.40;99.90;;;;;;2105827;28;20186;-66
2021/05/19 02:01:13;;;;;;;2.78;2.15;;;5.50;99.90;;;;;;2105990;28;20265;-65
2021/05/19 02:02:14;;;;;;;2.60;2.30;;;5.50;99.90;;;;;;2106112;28;20182;-65
2021/05/19 02:03:18;;;;;;;2.50;2.20;;;5.60;99.90;;;;;;2106237;28;20200;-65
2021/05/19 02:04:19;;;;;;;3.47;2.55;;;5.60;99.90;;;;;;2106166;28;20189;-65
2021/05/19 02:05:24;;;;;;;4.03;2.47;;;5.60;99.90;;;;;;2106783;28;20210;-66
2021/05/19 02:06:24;;;;;;;3.00;2.03;;;5.60;99.90;;;;;;2106540;28;20597;-66
2021/05/19 02:07:26;;;;;;;4.27;2.40;;;5.60;99.90;;;;;;2106540;28;20197;-65
2021/05/19 02:08:26;;;;;;;2.40;2.20;;;5.60;99.90;;;;;;2106613;28;20285;-65
2021/05/19 02:09:28;;;;;;;2.43;2.10;;;5.60;99.90;;;;;;2106689;28;20201;-65
2021/05/19 02:10:29;;;;;;;5.22;2.20;;;5.70;99.90;;;;;;2106545;28;20189;-65
2021/05/19 02:11:29;;;;;;;2.45;2.25;;;5.80;99.90;;;;;;2106349;28;20201;-65
2021/05/19 02:12:30;;;;;;;2.63;2.23;;;5.70;99.90;;;;;;2106560;28;20556;-65
2021/05/19 02:13:31;;;;;;;4.33;2.20;;;5.80;99.90;;;;;;2106641;28;20194;-66
2021/05/19 02:14:31;;;;;;;3.67;2.50;;;5.80;99.90;;;;;;2106482;28;20189;-65
2021/05/19 02:15:33;;;;;;;3.10;2.00;;;5.80;99.90;;;;;;2106600;28;20201;-65
2021/05/19 02:16:33;;;;;;;2.95;2.17;;;5.80;99.90;;;;;;2106382;28;20178;-65
2021/05/19 02:17:34;;;;;;;2.70;2.30;;;5.80;99.90;;;;;;2106522;28;20201;-66
2021/05/19 02:18:35;;;;;;;3.83;2.60;;;5.80;99.90;;;;;;2106509;28;20515;-64
2021/05/19 02:19:36;;;;;;;2.97;2.10;;;5.80;99.90;;;;;;2105705;28;20552;-65
2021/05/19 02:20:37;;;;;;;2.75;2.15;;;5.80;99.90;;;;;;2106005;28;20200;-65
2021/05/19 02:21:45;;;;;;;2.80;2.40;;;5.80;99.90;;;;;;2106452;28;20193;-65
2021/05/19 02:22:48;;;;;;;2.67;2.10;;;5.90;99.90;;;;;;2106291;28;20170;-65
2021/05/19 02:23:48;;;;;;;3.92;2.13;;;5.90;99.90;;;;;;2106584;28;20244;-65
2021/05/19 02:24:50;;;;;;;2.77;2.50;;;5.90;99.90;;;;;;2105762;28;20734;-66
2021/05/19 02:25:51;;;;;;;2.58;1.85;;;5.90;99.90;;;;;;2105830;28;20174;-66
2021/05/19 02:26:51;;;;;;;3.77;2.60;;;5.90;99.90;;;;;;2106441;28;20191;-65
2021/05/19 02:27:53;;;;;;;2.37;2.17;;;6.00;99.90;;;;;;2106028;28;20252;-65
2021/05/19 02:28:54;;;;;;;4.22;2.42;;;6.00;99.90;;;;;;2105669;28;20649;-65
2021/05/19 02:29:55;;;;;;;3.93;2.17;;;6.00;99.90;;;;;;2105825;28;20182;-66
2021/05/19 02:30:56;;;;;;;3.05;2.55;;;6.00;99.90;;;;;;2106454;28;20498;-65
2021/05/19 02:31:56;;;;;;;3.13;2.20;;;6.00;99.90;;;;;;2106121;28;20186;-66
2021/05/19 02:32:58;;;;;;;2.73;2.03;;;6.00;99.90;;;;;;2106268;28;20196;-65
2021/05/19 02:33:59;;;;;;;2.95;2.40;;;6.00;99.90;;;;;;2106321;28;20283;-66
2021/05/19 02:35:00;;;;;;;3.20;2.50;;;6.00;99.90;;;;;;2106330;28;20182;-65
2021/05/19 02:36:00;;;;;;;3.53;2.50;;;6.00;99.90;;;;;;2106299;28;20644;-65
2021/05/19 02:37:01;;;;;;;3.90;2.63;;;6.00;99.90;;;;;;2106375;28;20439;-65
2021/05/19 02:38:02;;;;;;;4.50;3.03;;;6.00;99.90;;;;;;2106341;28;20175;-66
2021/05/19 02:39:10;;;;;;;3.13;2.40;;;6.10;99.90;;;;;;2105480;28;20638;-65
2021/05/19 02:40:14;;;;;;;2.95;2.33;;;6.00;99.90;;;;;;2105730;28;20171;-65
2021/05/19 02:41:15;;;;;;;4.03;2.60;;;6.00;99.90;;;;;;2106073;28;20656;-65
2021/05/19 02:42:16;;;;;;;2.73;2.50;;;6.10;99.90;;;;;;2106254;28;20196;-65
2021/05/19 02:43:17;;;;;;;2.40;2.20;;;6.10;99.90;;;;;;2105658;28;20606;-65
2021/05/19 02:44:17;;;;;;;2.30;2.10;;;6.10;99.90;;;;;;2105596;28;20687;-65
2021/05/19 02:45:18;;;;;;;2.47;2.20;;;6.10;99.90;;;;;;2106222;28;20751;-65
2021/05/19 02:46:19;;;;;;;2.87;2.30;;;6.10;99.90;;;;;;2106249;28;20266;-66
2021/05/19 02:47:19;;;;;;;2.77;2.33;;;6.10;99.90;;;;;;2106446;28;20181;-64
2021/05/19 02:48:20;;;;;;;2.50;2.30;;;6.10;99.90;;;;;;2106228;28;20384;-65
2021/05/19 02:49:21;;;;;;;2.63;2.43;;;6.00;99.90;;;;;;2106182;28;20273;-65
2021/05/19 02:50:22;;;;;;;3.07;2.43;;;6.10;99.90;;;;;;2106167;28;20174;-65
2021/05/19 02:51:22;;;;;;;3.20;2.07;;;6.00;99.90;;;;;;2106159;28;20167;-65
2021/05/19 02:52:23;;;;;;;2.87;2.57;;;6.00;99.90;;;;;;2106166;28;20179;-64
2021/05/19 02:53:24;;;;;;;2.70;2.33;;;6.00;99.90;;;;;;2105655;28;20223;-65
2021/05/19 02:54:25;;;;;;;3.17;2.65;;;5.90;99.90;;;;;;2105593;28;20186;-65
2021/05/19 02:55:26;;;;;;;2.60;2.20;;;5.90;99.90;;;;;;2105502;28;20202;-65
2021/05/19 02:56:27;;;;;;;3.92;2.25;;;5.90;99.90;;;;;;2105710;28;20182;-65
2021/05/19 02:57:28;;;;;;;2.20;1.92;;;5.90;99.90;;;;;;2106260;28;20182;-65
2021/05/19 02:58:30;;;;;;;2.87;2.57;;;5.90;99.90;;;;;;2105550;28;20775;-64
2021/05/19 02:59:31;;;;;;;7.85;3.15;;;5.90;99.90;;;;;;2104121;28;20256;-65
2021/05/19 03:00:32;;;;;;;2.50;2.30;;;5.90;99.90;;;;;;2105971;28;20187;-65
2021/05/19 03:01:33;;;;;;;2.70;2.17;;;5.90;99.90;;;;;;2105960;28;20435;-65
2021/05/19 03:02:34;;;;;;;4.90;2.40;;;5.90;99.90;;;;;;2106252;28;20179;-65
2021/05/19 03:03:34;;;;;;;4.23;2.30;;;5.90;99.90;;;;;;2106173;28;20261;-65
2021/05/19 03:04:35;;;;;;;4.53;2.43;;;5.80;99.90;;;;;;2106213;28;20182;-64
2021/05/19 03:05:36;;;;;;;3.63;2.50;;;5.80;99.90;;;;;;2106018;28;20221;-65
2021/05/19 03:06:37;;;;;;;3.90;2.33;;;5.80;99.90;;;;;;2105677;28;20232;-64
2021/05/19 03:07:37;;;;;;;3.95;2.80;;;5.70;99.90;;;;;;2105512;28;20178;-64
2021/05/19 03:08:38;;;;;;;3.17;2.70;;;5.70;99.90;;;;;;2106242;28;20206;-64
2021/05/19 03:09:39;;;;;;;3.60;2.85;;;5.70;99.90;;;;;;2106244;28;20175;-65
2021/05/19 03:10:40;;;;;;;3.20;2.37;;;5.70;99.90;;;;;;2106322;28;20246;-64
2021/05/19 03:11:41;;;;;;;3.25;2.55;;;5.70;99.90;;;;;;2105813;28;20181;-64
2021/05/19 03:12:43;;;;;;;2.70;2.43;;;5.70;99.90;;;;;;2106210;28;20178;-64
2021/05/19 03:13:44;;;;;;;2.53;2.33;;;5.60;99.90;;;;;;2105954;28;20174;-65
2021/05/19 03:14:45;;;;;;;3.50;2.20;;;5.60;99.90;;;;;;2106114;28;20177;-64
2021/05/19 03:15:46;;;;;;;3.63;2.20;;;5.60;99.90;;;;;;2106003;28;20193;-64
2021/05/19 03:16:46;;;;;;;5.10;2.57;;;5.60;99.90;;;;;;2105923;28;20173;-65
2021/05/19 03:17:47;;;;;;;2.60;2.40;;;5.60;99.90;;;;;;2105417;28;20186;-64
2021/05/19 03:18:48;;;;;;;3.90;2.47;;;5.60;99.90;;;;;;2105527;28;20668;-64
2021/05/19 03:19:49;;;;;;;3.85;2.30;;;5.60;99.90;;;;;;2105303;28;20182;-64
2021/05/19 03:20:50;;;;;;;2.37;2.07;;;5.60;99.90;;;;;;2105345;28;20652;-64
2021/05/19 03:21:51;;;;;;;3.00;2.40;;;5.60;99.90;;;;;;2105517;28;20209;-64
2021/05/19 03:22:51;;;;;;;2.33;2.00;;;5.60;99.90;;;;;;2105876;28;20435;-64
2021/05/19 03:23:52;;;;;;;2.93;2.00;;;5.50;99.90;;;;;;2105867;28;20182;-64
2021/05/19 03:24:53;;;;;;;2.70;2.10;;;5.60;99.90;;;;;;2105701;28;20598;-64
2021/05/19 03:25:54;;;;;;;2.30;2.10;;;5.60;99.90;;;;;;2105813;28;20566;-64
2021/05/19 03:26:55;;;;;;;2.92;2.20;;;5.50;99.90;;;;;;2105937;28;20182;-64
2021/05/19 03:27:55;;;;;;;3.20;2.30;;;5.50;99.90;;;;;;2105841;28;20685;-64
2021/05/19 03:28:56;;;;;;;3.27;2.47;;;5.50;99.90;;;;;;2106230;28;20652;-64
2021/05/19 03:29:57;;;;;;;3.90;2.63;;;5.60;99.90;;;;;;2106271;28;20169;-64
2021/05/19 03:30:58;;;;;;;3.43;2.27;;;5.50;99.90;;;;;;2105868;28;20310;-64
2021/05/19 03:31:59;;;;;;;3.20;2.13;;;5.50;99.90;;;;;;2105762;28;20169;-65
2021/05/19 03:32:59;;;;;;;3.43;2.07;;;5.50;99.90;;;;;;2105777;28;20260;-65
2021/05/19 03:34:00;;;;;;;2.83;2.13;;;5.50;99.90;;;;;;2108522;28;20699;-65
2021/05/19 03:35:03;;;;;;;2.70;2.13;;;5.50;99.90;;;;;;2105779;28;20174;-64
2021/05/19 03:36:06;;;;;;;2.92;2.10;;;5.50;99.90;;;;;;2105860;28;20178;-65
2021/05/19 03:37:07;;;;;;;2.55;2.00;;;5.50;99.90;;;;;;2105755;28;20269;-65
2021/05/19 03:38:07;;;;;;;2.20;2.00;;;5.40;99.90;;;;;;2105814;28;20174;-65
2021/05/19 03:39:12;;;;;;;2.77;2.17;;;5.40;99.90;;;;;;2105829;28;20267;-64
2021/05/19 03:40:14;;;;;;;2.58;2.10;;;5.40;99.90;;;;;;2105866;28;20182;-64
2021/05/19 03:41:15;;;;;;;2.53;2.33;;;5.40;99.90;;;;;;2105506;28;20194;-64
2021/05/19 03:42:16;;;;;;;4.10;2.40;;;5.40;99.90;;;;;;2105986;28;20182;-65
2021/05/19 03:43:16;;;;;;;4.00;2.43;;;5.40;99.90;;;;;;2105975;28;20188;-64
2021/05/19 03:44:17;;;;;;;3.30;2.20;;;5.40;99.90;;;;;;2105944;28;20651;-65
2021/05/19 03:45:21;;;;;;;2.67;2.10;;;5.40;99.90;;;;;;2105911;28;20209;-64
2021/05/19 03:46:22;;;;;;;3.30;2.40;;;5.40;99.90;;;;;;2105952;28;20177;-64
2021/05/19 03:47:23;;;;;;;5.63;2.43;;;5.40;99.90;;;;;;2105150;28;20619;-65
2021/05/19 03:48:24;;;;;;;2.40;2.17;;;5.40;99.90;;;;;;2105333;28;20209;-65
2021/05/19 03:49:28;;;;;;;5.00;2.40;;;5.40;99.90;;;;;;2105739;28;20577;-65
2021/05/19 03:50:30;;;;;;;3.03;2.40;;;5.40;99.90;;;;;;2105418;28;20296;-65
2021/05/19 03:51:31;;;;;;;3.47;2.50;;;5.40;99.90;;;;;;2104990;28;20565;-64
2021/05/19 03:52:32;;;;;;;2.47;2.28;;;5.40;99.90;;;;;;2105182;28;20228;-65
2021/05/19 03:53:33;;;;;;;4.43;2.72;;;5.40;99.90;;;;;;2105219;28;20182;-65
2021/05/19 03:54:36;;;;;;;3.17;2.70;;;5.40;99.90;;;;;;2105700;28;20206;-65
2021/05/19 03:55:37;;;;;;;4.25;2.78;;;5.40;99.90;;;;;;2105737;28;20315;-65
2021/05/19 03:56:38;;;;;;;3.25;2.20;;;5.40;99.90;;;;;;2105941;28;20181;-65
2021/05/19 03:57:39;;;;;;;3.70;2.47;;;5.40;99.90;;;;;;2105816;28;20258;-65
2021/05/19 03:58:42;;;;;;;3.72;2.88;;;5.40;99.90;;;;;;2105984;28;20226;-65
2021/05/19 03:59:43;;;;;;;3.40;2.33;;;5.40;99.90;;;;;;2105770;28;20182;-65
2021/05/19 04:00:44;;;;;;;4.87;2.80;;;5.50;99.90;;;;;;2105883;28;20247;-65
2021/05/19 04:01:45;;;;;;;2.95;2.42;;;5.40;99.90;;;;;;2105524;28;20182;-65
2021/05/19 04:02:49;;;;;;;3.07;2.77;;;5.40;99.90;;;;;;2105761;28;20186;-65
2021/05/19 04:03:51;;;;;;;3.33;2.20;;;5.40;99.90;;;;;;2105774;28;20178;-66
2021/05/19 04:04:52;;;;;;;3.53;2.75;;;5.40;99.90;;;;;;2105669;28;20181;-66
2021/05/19 04:05:52;;;;;;;4.80;3.00;;;5.40;99.90;;;;;;2105543;28;20189;-66
2021/05/19 04:06:53;;;;;;;3.43;2.80;;;5.40;99.90;;;;;;2105590;28;20285;-66
2021/05/19 04:07:55;;;;;;;5.13;2.60;;;5.40;99.90;;;;;;2105359;28;20603;-65
2021/05/19 04:08:57;;;;;;;4.50;2.88;;;5.40;99.90;;;;;;2105404;28;20183;-66
2021/05/19 04:09:57;;;;;;;4.15;2.50;;;5.40;99.90;;;;;;2105364;28;20275;-66
2021/05/19 04:10:58;;;;;;;2.97;2.27;;;5.40;99.90;;;;;;2105361;28;20590;-65
2021/05/19 04:11:59;;;;;;;2.97;2.40;;;5.40;99.90;;;;;;2105215;28;20185;-65
2021/05/19 04:13:01;;;;;;;2.67;2.40;;;5.40;99.90;;;;;;2104904;28;20174;-65
2021/05/19 04:14:02;;;;;;;3.80;2.97;;;5.40;99.90;;;;;;2104760;28;20205;-65
2021/05/19 04:15:04;;;;;;;3.87;2.60;;;5.50;99.90;;;;;;2104775;28;20183;-65
2021/05/19 04:16:06;;;;;;;3.65;2.60;;;5.50;99.90;;;;;;2105169;28;20431;-65
2021/05/19 04:17:06;;;;;;;5.28;2.85;;;5.50;99.90;;;;;;2105533;28;20222;-65
2021/05/19 04:18:07;;;;;;;2.87;2.50;;;5.40;99.90;;;;;;2105478;28;20183;-65
2021/05/19 04:19:08;;;;;;;3.23;2.63;;;5.40;99.90;;;;;;2105447;28;20178;-66
2021/05/19 04:20:10;;;;;;;3.87;2.57;;;5.50;99.90;;;;;;2105364;28;20312;-65
2021/05/19 04:21:11;;;;;;;4.65;3.05;;;5.50;99.90;;;;;;2104697;28;20194;-65
2021/05/19 04:22:11;;;;;;;3.80;2.77;;;5.50;99.90;;;;;;2104622;28;20608;-66
2021/05/19 04:23:12;;;;;;;2.97;2.50;;;5.50;99.90;;;;;;2105402;28;20184;-65
2021/05/19 04:24:13;;;;;;;4.10;2.73;;;5.50;99.90;;;;;;2105461;28;20235;-65
2021/05/19 04:25:15;;;;;;;4.57;3.23;;;5.50;99.90;;;;;;2105369;28;20699;-66
2021/05/19 04:26:15;;;;;;;3.42;2.80;;;5.50;99.90;;;;;;2105345;28;20442;-65
2021/05/19 04:27:16;;;;;;;4.40;2.73;;;5.50;99.90;;;;;;2104596;28;20186;-65
2021/05/19 04:28:17;;;;;;;4.07;2.83;;;5.50;99.90;;;;;;2104736;28;20934;-65
2021/05/19 04:29:18;;;;;;;4.73;2.80;;;5.50;99.90;;;;;;2105375;28;20269;-65
2021/05/19 04:30:19;;;;;;;2.95;2.53;;;5.40;99.90;;;;;;2105752;28;20181;-65
2021/05/19 04:31:20;;;;;;;2.80;2.47;;;5.50;99.90;;;;;;2105406;28;20264;-66
2021/05/19 04:32:20;;;;;;;3.93;2.47;;;5.50;99.90;;;;;;2105605;28;20179;-65
2021/05/19 04:33:22;;;;;;;3.03;2.63;;;5.50;99.90;;;;;;2105647;28;20290;-65
2021/05/19 04:34:23;;;;;;;4.25;2.30;;;5.50;99.90;;;;;;2105973;28;20178;-65
2021/05/19 04:35:23;;;;;;;3.23;2.10;;;5.40;99.90;;;;;;2106147;28;20275;-65
2021/05/19 04:36:25;;;;;;;3.43;2.23;;;5.50;99.90;;;;;;2106581;28;20193;-65
2021/05/19 04:37:26;;;;;;;2.83;2.47;;;5.50;99.90;;;;;;2106544;28;20206;-65
2021/05/19 04:38:26;;;;;;;3.60;2.30;;;5.40;99.90;;;;;;2106692;28;20181;-65
2021/05/19 04:39:27;;;;;;;2.90;2.30;;;5.50;99.90;;;;;;2106746;28;20638;-65
2021/05/19 04:40:28;;;;;;;3.60;2.43;;;5.50;99.90;;;;;;2107023;28;20182;-65
2021/05/19 04:41:29;;;;;;;2.65;2.45;;;5.50;99.90;;;;;;2106671;28;20179;-65
2021/05/19 04:42:30;;;;;;;2.60;2.40;;;5.50;99.90;;;;;;2106804;28;20182;-65
2021/05/19 04:43:31;;;;;;;2.93;2.30;;;5.50;99.90;;;;;;2107711;28;20293;-65
2021/05/19 04:44:31;;;;;;;4.10;2.60;;;5.50;99.90;;;;;;2108673;28;20244;-65
2021/05/19 04:45:32;;;;;;;2.40;2.20;;;5.50;99.90;;;;;;2108474;28;20237;-65
2021/05/19 04:46:34;;;;;;;2.40;2.00;;;5.60;99.90;;;;;;2108598;28;20189;-65
2021/05/19 04:47:34;;;;;;;2.78;2.00;;;5.50;99.90;;;;;;2108406;28;20255;-65
2021/05/19 04:48:35;;;;;;;2.37;2.17;;;5.60;99.90;;;;;;2108534;28;20180;-65
2021/05/19 04:49:36;;;;;;;2.50;2.30;;;5.50;99.90;;;;;;2108644;28;20201;-65
2021/05/19 04:50:38;;;;;;;2.50;2.17;;;5.60;99.90;;;;;;2108011;28;20554;-65
2021/05/19 04:51:38;;;;;;;2.22;2.03;;;5.60;99.90;;;;;;2107765;28;20212;-65
2021/05/19 04:52:39;;;;;;;2.47;2.00;;;5.60;99.90;;;;;;2108540;28;20177;-66
2021/05/19 04:53:40;;;;;;;3.13;2.40;;;5.60;99.90;;;;;;2108499;28;20186;-65
2021/05/19 04:54:41;;;;;;;2.40;2.20;;;5.60;99.90;;;;;;2108546;28;20740;-65
2021/05/19 04:55:41;;;;;;;3.33;2.13;;;5.70;99.90;;;;;;2108591;28;20289;-65
2021/05/19 04:56:42;;;;;;;5.27;2.20;;;5.70;99.90;;;;;;2108630;28;20186;-65
2021/05/19 04:57:43;;;;;;;3.43;2.20;;;5.70;99.90;;;;;;2108511;28;20175;-65
2021/05/19 04:58:43;;;;;;;3.00;2.37;;;5.80;99.90;;;;;;2108712;28;20548;-65
2021/05/19 04:59:44;;;;;;;3.03;2.17;;;5.80;99.90;;;;;;2108342;28;20779;-66
2021/05/19 05:00:45;;;;;;;3.57;2.20;;;5.80;99.90;;;;;;2108621;28;20185;-65
2021/05/19 05:01:46;;;;;;;3.07;2.10;;;5.90;99.90;;;;;;2107634;28;20240;-65
2021/05/19 05:02:47;;;;;;;4.22;2.70;;;5.90;99.90;;;;;;2108457;28;20181;-65
2021/05/19 05:03:48;;;;;;;2.80;2.00;;;5.90;99.90;;;;;;2109285;28;20185;-65
2021/05/19 05:04:50;;;;;;;4.00;2.33;;;6.00;99.90;;;;;;2109103;28;20177;-65
2021/05/19 05:05:53;;;;;;;3.00;2.13;;;6.00;99.90;;;;;;2108621;28;20201;-64
2021/05/19 05:06:54;;;;;;;2.30;1.92;;;6.00;99.90;;;;;;2108612;28;20649;-64
2021/05/19 05:07:54;;;;;;;2.30;2.10;;;6.10;99.90;;;;;;2108452;28;20217;-64
2021/05/19 05:08:55;;;;;;;3.37;2.47;;;6.20;99.90;;;;;;2108639;28;20199;-64
2021/05/19 05:09:56;;;;;;;3.07;2.10;;;6.30;99.90;;;;;;2108454;28;20274;-65
2021/05/19 05:10:57;;;;;;;2.88;2.20;;;6.30;99.90;;;;;;2108329;28;20524;-64
2021/05/19 05:11:59;;;;;;;3.13;2.23;;;6.30;99.90;;;;;;2108270;28;20179;-64
2021/05/19 05:13:00;;;;;;;3.08;2.22;;;6.50;99.90;;;;;;2108438;28;20182;-64
2021/05/19 05:14:00;;;;;;;2.43;2.13;;;6.50;99.90;;;;;;2108577;28;20542;-65
2021/05/19 05:15:02;;;;;;;2.80;2.30;;;6.50;99.90;;;;;;2108232;28;20182;-64
2021/05/19 05:16:03;;;;;;;4.40;2.95;;;6.50;99.90;;;;;;2107886;28;20660;-64
2021/05/19 05:17:04;;;;;;;4.25;3.25;;;6.50;99.90;;;;;;2107951;28;20185;-64
2021/05/19 05:18:05;;;;;;;3.43;2.67;;;6.40;99.90;;;;;;2108779;28;20203;-64
2021/05/19 05:19:05;;;;;;;4.60;2.93;;;6.40;99.90;;;;;;2108505;28;20195;-65
2021/05/19 05:20:08;;;;;;;3.57;2.33;;;6.40;99.90;;;;;;2108340;28;20225;-65
2021/05/19 05:21:11;;;;;;;2.92;2.50;;;6.40;99.90;;;;;;2108038;28;20719;-64
2021/05/19 05:22:12;;;;;;;6.03;2.80;;;6.40;99.90;;;;;;2108342;28;20182;-64
2021/05/19 05:23:12;;;;;;;4.87;2.70;;;6.30;99.90;;;;;;2107787;28;20185;-65
2021/05/19 05:24:13;;;;;;;3.30;2.60;;;6.30;99.90;;;;;;2106226;28;20356;-65
2021/05/19 05:25:14;;;;;;;4.20;2.40;;;6.40;99.90;;;;;;2105955;28;20198;-65
2021/05/19 05:26:16;;;;;;;3.30;2.30;;;6.40;99.90;;;;;;2106659;28;20654;-65